ADDS METAR Data INFO
IDs: Format: Raw Decoded Include TAF

Data at: 0253 UTC 21 Oct 2017

KI23 210232Z AUTO 17003KT 10SM CLR 08/08 A3021 RMK AO1
KI23 210211Z AUTO 00000KT 10SM CLR 09/09 A3021 RMK AO1
KI23 210152Z AUTO 15003KT 10SM CLR 09/08 A3021 RMK AO1
KI23 210132Z AUTO 00000KT 10SM CLR 09/09 A3021 RMK AO1
KI23 210112Z AUTO 00000KT 10SM CLR 10/09 A3021 RMK AO1
KI23 210052Z AUTO 00000KT 10SM CLR 10/09 A3022 RMK AO1
KI23 210031Z AUTO 17003KT 10SM CLR 11/10 A3022 RMK AO1
KI23 210012Z AUTO 16003KT 10SM CLR 13/10 A3022 RMK AO1
KI23 202352Z AUTO 14004KT 10SM CLR 14/10 A3022 RMK AO1
KI23 202331Z AUTO 13004KT 10SM CLR 16/11 A3021 RMK AO1
KI23 202312Z AUTO 14004KT 10SM CLR 16/11 A3021 RMK AO1
KI23 202252Z AUTO 13004KT 10SM CLR 19/11 A3021 RMK AO1
KI23 202231Z AUTO 13003KT 10SM CLR 21/11 A3021 RMK AO1
KI23 202212Z AUTO 14003KT 10SM CLR 22/10 A3021 RMK AO1
KI23 202152Z AUTO 00000KT 10SM CLR 23/10 A3021 RMK AO1
KI23 202131Z AUTO 13004KT 10SM CLR 24/10 A3020 RMK AO1
KI23 202112Z AUTO 00000KT 10SM CLR 24/09 A3021 RMK AO1
KI23 202051Z AUTO 00000KT 10SM CLR 24/09 A3021 RMK AO1
KI23 202032Z AUTO 00000KT 10SM CLR 24/09 A3021 RMK AO1
KI23 202012Z AUTO 20003KT 10SM CLR 25/09 A3022 RMK AO1
KI23 201951Z AUTO 18004KT 10SM CLR 25/09 A3022 RMK AO1
KI23 201932Z AUTO 17005KT 10SM CLR 25/10 A3023 RMK AO1
KI23 201912Z AUTO 00000KT 10SM CLR 25/10 A3023 RMK AO1
KI23 201851Z AUTO 18003KT 10SM CLR 24/09 A3024 RMK AO1
KI23 201832Z AUTO 19003KT 10SM CLR 24/09 A3026 RMK AO1
KI23 201812Z AUTO 01003KT 10SM CLR 23/09 A3026 RMK AO1
KI23 201751Z AUTO 18003KT 10SM CLR 24/09 A3027 RMK AO1
KI23 201732Z AUTO 22003KT 10SM CLR 23/10 A3028 RMK AO1
KI23 201712Z AUTO 00000KT 10SM CLR 23/11 A3029 RMK AO1
KI23 201651Z AUTO 08003KT 10SM CLR 23/11 A3030 RMK AO1
KI23 201632Z AUTO 00000KT 10SM CLR 22/11 A3031 RMK AO1
KI23 201612Z AUTO 11003KT 10SM CLR 21/11 A3032 RMK AO1
KI23 201551Z AUTO 12003KT 10SM CLR 20/10 A3032 RMK AO1
KI23 201532Z AUTO 00000KT 10SM CLR 20/10 A3032 RMK AO1
KI23 201512Z AUTO 15003KT 10SM CLR 19/10 A3032 RMK AO1
KI23 201451Z AUTO 15003KT 10SM CLR 18/11 A3033 RMK AO1
KI23 201432Z AUTO 09004KT 10SM CLR 17/11 A3033 RMK AO1
KI23 201411Z AUTO 00000KT 10SM CLR 17/11 A3033 RMK AO1
KI23 201352Z AUTO 00000KT 10SM CLR 15/12 A3033 RMK AO1
KI23 201332Z AUTO 00000KT 10SM CLR 13/12 A3033 RMK AO1
KI23 201311Z AUTO 00000KT 7SM CLR 11/11 A3032 RMK AO1
KI23 201252Z AUTO 00000KT 4SM CLR 10/10 A3031 RMK AO1
KI23 201232Z AUTO 00000KT 2SM CLR 08/08 A3031 RMK AO1
KI23 201211Z AUTO 00000KT 1 3/4SM VV007 06/06 A3030 RMK AO1
KI23 201152Z AUTO 26003KT 2SM CLR 05/05 A3030 RMK AO1
KI23 201132Z AUTO 25003KT 2SM CLR 05/05 A3029 RMK AO1
KI23 201111Z AUTO 00000KT 4SM CLR 05/05 A3028 RMK AO1
KI23 201052Z AUTO 25003KT 4SM CLR 05/05 A3028 RMK AO1
KI23 201032Z AUTO 00000KT 4SM CLR 06/06 A3027 RMK AO1
KI23 201012Z AUTO 28004KT 4SM CLR 06/06 A3026 RMK AO1
KI23 200952Z AUTO 00000KT 5SM CLR 06/06 A3026 RMK AO1
KI23 200932Z AUTO 00000KT 7SM CLR 06/06 A3026 RMK AO1
KI23 200912Z AUTO 00000KT 7SM CLR 06/06 A3025 RMK AO1
KI23 200852Z AUTO 00000KT 10SM CLR 07/07 A3025 RMK AO1
KI23 200832Z AUTO 00000KT 10SM CLR 07/06 A3024 RMK AO1
KI23 200812Z AUTO 26003KT 10SM CLR 09/08 A3024 RMK AO1
KI23 200752Z AUTO 26004KT 10SM CLR 09/08 A3024 RMK AO1
KI23 200732Z AUTO 26004KT 10SM CLR 08/08 A3024 RMK AO1
KI23 200711Z AUTO 25004KT 10SM CLR 10/09 A3024 RMK AO1
KI23 200652Z AUTO 25005KT 10SM CLR 10/09 A3024 RMK AO1
KI23 200631Z AUTO 25005KT 10SM CLR 10/09 A3024 RMK AO1
KI23 200612Z AUTO 24003KT 10SM CLR 08/07 A3024 RMK AO1
KI23 200552Z AUTO 00000KT 10SM CLR 09/08 A3023 RMK AO1
KI23 200531Z AUTO 24004KT 10SM CLR 10/09 A3023 RMK AO1
KI23 200512Z AUTO 24005KT 10SM CLR 11/09 A3022 RMK AO1
KI23 200452Z AUTO 24005KT 10SM CLR 12/10 A3023 RMK AO1
KI23 200431Z AUTO 24004KT 10SM CLR 11/09 A3022 RMK AO1
KI23 200412Z AUTO 24005KT 10SM CLR 12/10 A3022 RMK AO1
KI23 200352Z AUTO 25004KT 10SM CLR 12/10 A3022 RMK AO1
KI23 200331Z AUTO 24005KT 10SM CLR 12/10 A3022 RMK AO1
KI23 200312Z AUTO 23005KT 10SM CLR 11/09 A3022 RMK AO1
KI23 200251Z AUTO 23005KT 10SM CLR 12/10 A3022 RMK AO1
KI23 200232Z AUTO 23005KT 10SM CLR 12/10 A3022 RMK AO1
KI23 200212Z AUTO 22006KT 10SM CLR 11/09 A3022 RMK AO1
KI23 200151Z AUTO 21005KT 10SM CLR 12/09 A3021 RMK AO1
KI23 200132Z AUTO 22005KT 10SM CLR 12/10 A3021 RMK AO1
KI23 200112Z AUTO 24004KT 10SM CLR 12/10 A3022 RMK AO1
KI23 200051Z AUTO 23004KT 10SM CLR 13/10 A3021 RMK AO1
KI23 200032Z AUTO 23004KT 10SM CLR 13/10 A3021 RMK AO1
KI23 200012Z AUTO 23004KT 10SM CLR 13/10 A3021 RMK AO1
KI23 192351Z AUTO 23005KT 10SM CLR 15/10 A3021 RMK AO1
KI23 192332Z AUTO 24004KT 10SM CLR 13/09 A3020 RMK AO1
KI23 192312Z AUTO 24004KT 10SM CLR 15/10 A3020 RMK AO1
KI23 192251Z AUTO 25004KT 10SM CLR 18/10 A3020 RMK AO1
KI23 192232Z AUTO 23005KT 10SM CLR 19/10 A3019 RMK AO1
KI23 192212Z AUTO 23007KT 10SM CLR 20/10 A3019 RMK AO1
KI23 192151Z AUTO 23007KT 10SM CLR 21/10 A3019 RMK AO1
KI23 192132Z AUTO 24009KT 10SM CLR 22/10 A3018 RMK AO1
KI23 192112Z AUTO 23009KT 10SM CLR 22/10 A3019 RMK AO1
KI23 192052Z AUTO 24009G14KT 10SM CLR 23/10 A3019 RMK AO1
KI23 192032Z AUTO 23009KT 10SM CLR 23/10 A3019 RMK AO1
KI23 192012Z AUTO 23008G15KT 10SM CLR 23/09 A3019 RMK AO1
KI23 191952Z AUTO 25010KT 10SM CLR 23/10 A3019 RMK AO1
KI23 191932Z AUTO 22010KT 10SM CLR 23/09 A3020 RMK AO1
KI23 191912Z AUTO 22009G14KT 10SM CLR 24/10 A3020 RMK AO1
KI23 191852Z AUTO 21009G16KT 10SM CLR 23/09 A3020 RMK AO1
KI23 191832Z AUTO 23011KT 10SM CLR 23/10 A3020 RMK AO1
KI23 191756Z AUTO 22011G14KT 210V270 10SM CLR 23/10 A3021 RMK AO1
KI23 191732Z AUTO 23012G16KT 10SM CLR 22/10 A3022 RMK AO1
KI23 191712Z AUTO 23010G16KT 10SM CLR 22/09 A3023 RMK AO1
KI23 191652Z AUTO 24011G16KT 10SM CLR 21/09 A3023 RMK AO1
KI23 191632Z AUTO 23012G17KT 10SM CLR 21/09 A3023 RMK AO1
KI23 191612Z AUTO 24010G16KT 10SM CLR 21/09 A3023 RMK AO1
KI23 191551Z AUTO 23012G15KT 10SM CLR 20/09 A3023 RMK AO1
KI23 191532Z AUTO 22012KT 10SM CLR 19/09 A3024 RMK AO1
KI23 191512Z AUTO 24010G15KT 10SM CLR 18/09 A3024 RMK AO1